createdAt,value
2023-03-31T00:00:54.788Z,10.40
2023-03-31T00:03:22.113Z,10.40
2023-03-31T00:05:53.698Z,10.40
2023-03-31T00:08:21.523Z,10.40
2023-03-31T00:10:49.224Z,10.40
2023-03-31T00:13:16.756Z,10.40
2023-03-31T00:15:44.036Z,10.40
2023-03-31T00:18:11.458Z,10.40
2023-03-31T00:20:38.534Z,10.40
2023-03-31T00:23:11.135Z,10.40
2023-03-31T00:25:41.954Z,10.40
2023-03-31T00:28:09.394Z,10.40
2023-03-31T00:30:36.624Z,10.40
2023-03-31T00:33:04.774Z,10.40
2023-03-31T00:35:32.229Z,10.50
2023-03-31T00:37:59.954Z,10.40
2023-03-31T00:40:27.049Z,10.40
2023-03-31T00:42:54.226Z,10.50
2023-03-31T00:45:27.480Z,10.60
2023-03-31T00:48:10.468Z,10.60
2023-03-31T00:50:59.331Z,10.40
2023-03-31T00:53:30.834Z,10.40
2023-03-31T00:56:05.321Z,10.50
2023-03-31T01:01:03.538Z,10.60
2023-03-31T01:03:33.593Z,10.60
2023-03-31T01:06:06.567Z,10.60
2023-03-31T01:08:36.707Z,10.70
2023-03-31T01:11:11.008Z,10.80
2023-03-31T01:13:41.811Z,10.70
2023-03-31T01:16:09.291Z,10.70
2023-03-31T01:18:36.606Z,10.50
2023-03-31T01:22:05.688Z,10.70
2023-03-31T01:25:11.418Z,10.80
2023-03-31T01:28:03.868Z,10.90
2023-03-31T01:30:49.881Z,10.80
2023-03-31T01:33:44.704Z,10.70
2023-03-31T01:36:31.568Z,10.70
2023-03-31T01:39:31.579Z,10.60
2023-03-31T01:42:24.272Z,10.70
2023-03-31T01:45:26.375Z,10.60
2023-03-31T01:48:21.318Z,10.60
2023-03-31T01:50:57.691Z,10.60
2023-03-31T01:53:41.472Z,10.60
2023-03-31T01:56:39.858Z,10.50
2023-03-31T01:59:17.479Z,10.40
2023-03-31T02:02:00.383Z,10.30
2023-03-31T02:04:46.642Z,10.30
2023-03-31T02:07:20.806Z,10.40
2023-03-31T02:09:54.361Z,10.60
2023-03-31T02:12:26.181Z,10.60
2023-03-31T02:14:55.479Z,10.70
2023-03-31T02:17:33.089Z,10.70
2023-03-31T02:20:16.021Z,10.80
2023-03-31T02:22:53.258Z,10.90
2023-03-31T02:25:26.287Z,10.90
2023-03-31T02:28:02.926Z,10.90
2023-03-31T02:30:46.065Z,10.80
2023-03-31T02:33:13.177Z,10.70
2023-03-31T02:35:40.363Z,10.60
2023-03-31T02:38:09.584Z,10.40
2023-03-31T02:40:36.844Z,10.30
2023-03-31T02:43:04.106Z,10.10
2023-03-31T02:45:49.700Z,10.00
2023-03-31T02:48:38.365Z,9.90
2023-03-31T02:51:39.104Z,9.80
2023-03-31T02:54:33.039Z,9.70
2023-03-31T02:57:17.853Z,9.60
2023-03-31T03:00:01.265Z,9.50
2023-03-31T03:03:05.735Z,9.40
2023-03-31T03:06:15.343Z,9.40
2023-03-31T03:09:09.151Z,9.40
2023-03-31T03:11:49.224Z,9.30
2023-03-31T03:14:59.676Z,9.30
2023-03-31T03:17:41.738Z,9.20
2023-03-31T03:20:10.812Z,9.20
2023-03-31T03:22:39.539Z,9.20
2023-03-31T03:25:13.768Z,9.20
2023-03-31T03:27:41.225Z,9.20
2023-03-31T03:30:11.393Z,9.30
2023-03-31T03:32:38.887Z,9.30
2023-03-31T03:35:07.082Z,9.20
2023-03-31T03:37:35.459Z,9.30
2023-03-31T03:40:05.851Z,9.30
2023-03-31T03:42:34.388Z,9.30
2023-03-31T03:45:02.042Z,9.30
2023-03-31T03:47:29.434Z,9.40
2023-03-31T03:49:56.732Z,9.40
2023-03-31T03:52:25.569Z,9.40
2023-03-31T03:54:52.755Z,9.50
2023-03-31T03:57:20.138Z,9.60
2023-03-31T03:59:49.658Z,9.60
2023-03-31T04:02:16.856Z,9.70
2023-03-31T04:04:44.058Z,9.60
2023-03-31T04:07:11.181Z,9.50
2023-03-31T04:09:38.329Z,9.40
2023-03-31T04:12:05.557Z,9.30
2023-03-31T04:14:32.750Z,9.30
2023-03-31T04:16:59.906Z,9.30
2023-03-31T04:19:27.636Z,9.20
2023-03-31T04:22:04.967Z,9.20
2023-03-31T04:24:33.313Z,9.10
2023-03-31T04:27:03.186Z,9.10
2023-03-31T04:29:33.864Z,9.10
2023-03-31T04:32:01.617Z,9.20
2023-03-31T04:34:35.596Z,9.20
2023-03-31T04:37:03.957Z,9.20
2023-03-31T04:39:32.200Z,9.20
2023-03-31T04:42:00.907Z,9.20
2023-03-31T04:44:29.075Z,9.20
2023-03-31T04:46:56.882Z,9.30
2023-03-31T04:49:24.118Z,9.40
2023-03-31T04:51:51.494Z,9.50
2023-03-31T04:54:20.366Z,9.50
2023-03-31T04:56:47.596Z,9.60
2023-03-31T04:59:14.919Z,9.50
2023-03-31T05:01:45.232Z,9.40
2023-03-31T05:04:12.568Z,9.30
2023-03-31T05:06:39.782Z,9.20
2023-03-31T05:09:07.298Z,9.20
2023-03-31T05:11:34.479Z,9.10
2023-03-31T05:14:01.666Z,9.10
2023-03-31T05:16:28.875Z,9.00
2023-03-31T05:18:56.078Z,9.00
2023-03-31T05:21:23.269Z,8.90
2023-03-31T05:23:51.109Z,8.90
2023-03-31T05:26:20.142Z,9.00
2023-03-31T05:28:47.443Z,8.90
2023-03-31T05:31:14.552Z,8.90
2023-03-31T05:33:42.413Z,8.80
2023-03-31T05:36:13.392Z,8.80
2023-03-31T05:38:41.242Z,8.80
2023-03-31T05:41:11.089Z,8.80
2023-03-31T05:43:39.848Z,8.80
2023-03-31T05:46:07.461Z,8.90
2023-03-31T05:48:37.505Z,9.00
2023-03-31T05:51:05.171Z,9.00
2023-03-31T05:53:32.383Z,8.90
2023-03-31T05:56:02.327Z,8.90
2023-03-31T05:58:30.266Z,8.90
2023-03-31T06:01:13.886Z,9.00
2023-03-31T06:03:42.705Z,8.90
2023-03-31T06:06:15.032Z,9.00
2023-03-31T06:08:44.037Z,9.00
2023-03-31T06:11:19.491Z,8.90
2023-03-31T06:13:47.090Z,8.90
2023-03-31T06:16:19.631Z,8.90
2023-03-31T06:18:46.855Z,9.00
2023-03-31T06:21:20.201Z,9.00
2023-03-31T06:23:48.278Z,8.90
2023-03-31T06:26:19.627Z,8.90
2023-03-31T06:28:47.327Z,8.90
2023-03-31T06:31:18.859Z,8.90
2023-03-31T06:33:46.750Z,9.00
2023-03-31T06:36:17.000Z,9.00
2023-03-31T06:38:45.170Z,9.00
2023-03-31T06:41:14.975Z,9.10
2023-03-31T06:43:42.764Z,9.10
2023-03-31T06:46:11.278Z,9.10
2023-03-31T06:48:39.751Z,9.20
2023-03-31T06:51:08.097Z,9.20
2023-03-31T06:53:35.975Z,9.20
2023-03-31T06:56:04.689Z,9.20
2023-03-31T06:58:32.536Z,9.20
2023-03-31T07:01:02.944Z,9.30
2023-03-31T07:03:30.601Z,9.40
2023-03-31T07:05:57.776Z,9.40
2023-03-31T07:08:25.454Z,9.60
2023-03-31T07:10:58.993Z,9.70
2023-03-31T07:13:27.348Z,9.70
2023-03-31T07:15:55.469Z,9.80
2023-03-31T07:18:34.462Z,9.90
2023-03-31T07:21:05.676Z,10.00
2023-03-31T07:23:35.186Z,10.10
2023-03-31T07:26:02.730Z,10.10
2023-03-31T07:28:30.936Z,10.00
2023-03-31T07:30:58.135Z,10.10
2023-03-31T07:33:25.600Z,10.10
2023-03-31T07:36:03.901Z,10.10
2023-03-31T07:38:37.833Z,10.00
2023-03-31T07:41:09.242Z,10.00
2023-03-31T07:43:37.771Z,10.00
2023-03-31T07:46:06.041Z,10.10
2023-03-31T07:48:34.628Z,10.10
2023-03-31T07:51:01.873Z,10.10
2023-03-31T07:53:28.997Z,10.20
2023-03-31T07:55:56.282Z,10.20
2023-03-31T07:58:23.413Z,10.30
2023-03-31T08:00:50.845Z,10.20
2023-03-31T08:03:18.015Z,10.40
2023-03-31T08:05:45.130Z,10.50
2023-03-31T08:08:12.309Z,10.50
2023-03-31T08:10:39.431Z,10.60
2023-03-31T08:13:06.655Z,10.60
2023-03-31T08:15:33.767Z,10.60
2023-03-31T08:18:00.806Z,10.50
2023-03-31T08:20:27.968Z,10.50
2023-03-31T08:22:55.316Z,10.50
2023-03-31T08:25:23.780Z,10.70
2023-03-31T08:27:51.364Z,10.70
2023-03-31T08:30:20.498Z,10.70
2023-03-31T08:32:47.702Z,10.80
2023-03-31T08:35:14.900Z,10.80
2023-03-31T08:37:42.038Z,10.80
2023-03-31T08:40:20.323Z,10.60
2023-03-31T08:42:55.585Z,10.50
2023-03-31T08:45:25.167Z,10.40
2023-03-31T08:48:05.291Z,10.30
2023-03-31T08:50:38.284Z,10.30
2023-03-31T08:53:23.455Z,10.40
2023-03-31T08:55:54.021Z,10.40
2023-03-31T08:58:42.936Z,10.40
2023-03-31T09:01:19.863Z,10.50
2023-03-31T09:04:14.524Z,10.50
2023-03-31T09:07:23.187Z,10.40
2023-03-31T09:10:46.500Z,10.40
2023-03-31T09:13:58.097Z,10.40
2023-03-31T09:16:52.826Z,10.40
2023-03-31T09:19:53.174Z,10.30
2023-03-31T09:22:31.878Z,10.30
2023-03-31T09:25:12.204Z,10.20
2023-03-31T09:27:42.651Z,10.30
2023-03-31T09:30:09.924Z,10.30
2023-03-31T09:32:38.969Z,10.30
2023-03-31T09:35:26.852Z,10.20
2023-03-31T09:37:54.506Z,9.80
2023-03-31T09:40:25.550Z,9.40
2023-03-31T09:43:02.076Z,8.90
2023-03-31T09:45:30.858Z,8.50
2023-03-31T09:48:06.910Z,8.20
2023-03-31T09:50:55.870Z,8.10
2023-03-31T09:53:36.054Z,8.00
2023-03-31T09:56:08.435Z,8.00
2023-03-31T09:58:42.836Z,8.00
2023-03-31T10:01:13.448Z,8.00
2023-03-31T10:03:50.639Z,8.00
2023-03-31T10:06:18.945Z,8.00
2023-03-31T10:09:03.252Z,8.00
2023-03-31T10:11:30.510Z,8.00
2023-03-31T10:14:15.287Z,8.10
2023-03-31T10:16:57.340Z,8.10
2023-03-31T10:19:29.723Z,8.20
2023-03-31T10:22:36.123Z,8.20
2023-03-31T10:25:18.445Z,8.20
2023-03-31T10:27:49.169Z,8.30
2023-03-31T10:30:24.974Z,8.40
2023-03-31T10:32:54.584Z,8.50
2023-03-31T10:35:33.891Z,8.70
2023-03-31T10:38:13.578Z,8.90
2023-03-31T10:40:51.822Z,9.20
2023-03-31T10:43:24.785Z,9.30
2023-03-31T10:46:00.665Z,9.30
2023-03-31T10:48:33.152Z,9.50
2023-03-31T10:51:22.426Z,9.70
2023-03-31T10:53:52.781Z,9.90
2023-03-31T10:56:46.520Z,10.20
2023-03-31T10:59:51.914Z,10.30
2023-03-31T11:03:02.877Z,10.30
2023-03-31T11:05:35.801Z,10.20
2023-03-31T11:08:39.068Z,10.20
2023-03-31T11:11:46.320Z,10.20
2023-03-31T11:14:30.801Z,10.40
2023-03-31T11:17:21.292Z,10.60
2023-03-31T11:20:09.865Z,10.70
2023-03-31T11:23:04.396Z,10.70
2023-03-31T11:25:43.593Z,10.50
2023-03-31T11:28:41.150Z,10.30
2023-03-31T11:31:38.863Z,10.10
2023-03-31T11:35:06.344Z,9.90
2023-03-31T11:37:36.609Z,9.80
2023-03-31T11:40:15.283Z,9.60
2023-03-31T11:43:28.765Z,9.50
2023-03-31T11:46:24.927Z,9.50
2023-03-31T11:49:02.952Z,9.70
2023-03-31T11:51:57.740Z,10.20
2023-03-31T11:54:50.199Z,10.70
2023-03-31T11:57:27.968Z,11.30
2023-03-31T12:00:07.531Z,12.10
2023-03-31T12:03:08.054Z,13.00
2023-03-31T12:05:44.619Z,13.50
2023-03-31T12:08:29.895Z,13.80
2023-03-31T12:11:17.071Z,13.50
2023-03-31T12:13:52.045Z,12.90
2023-03-31T12:16:28.529Z,12.60
2023-03-31T12:19:28.585Z,12.20
2023-03-31T12:22:12.005Z,11.70
2023-03-31T12:24:39.185Z,11.20
2023-03-31T12:27:14.639Z,11.10
2023-03-31T12:29:57.597Z,10.90
2023-03-31T12:32:31.323Z,11.00
2023-03-31T12:35:07.653Z,11.20
2023-03-31T12:38:05.851Z,12.00
2023-03-31T12:41:15.081Z,13.10
2023-03-31T12:44:15.424Z,14.00
2023-03-31T12:47:17.597Z,14.40
2023-03-31T12:50:02.462Z,14.50
2023-03-31T12:52:59.855Z,14.50
2023-03-31T12:55:52.132Z,14.20
2023-03-31T12:58:25.672Z,14.00
2023-03-31T13:01:06.657Z,13.50
2023-03-31T13:03:51.227Z,13.60
2023-03-31T13:06:30.472Z,13.80
2023-03-31T13:09:11.544Z,13.80
2023-03-31T13:11:44.976Z,13.50
2023-03-31T13:14:26.744Z,13.30
2023-03-31T13:17:31.903Z,13.30
2023-03-31T13:20:32.458Z,13.40
2023-03-31T13:23:21.670Z,13.20
2023-03-31T13:25:57.794Z,13.20
2023-03-31T13:28:45.046Z,13.00
2023-03-31T13:31:14.887Z,12.90
2023-03-31T13:33:59.210Z,12.70
2023-03-31T13:36:32.260Z,12.60
2023-03-31T13:39:27.206Z,12.50
2023-03-31T13:42:26.202Z,12.30
2023-03-31T13:45:30.410Z,12.10
2023-03-31T13:48:34.968Z,12.00
2023-03-31T13:51:32.343Z,12.00
2023-03-31T13:55:10.768Z,12.00
2023-03-31T13:57:57.825Z,12.10
2023-03-31T14:00:56.035Z,12.10
2023-03-31T14:04:09.808Z,11.80
2023-03-31T14:07:12.871Z,11.70
2023-03-31T14:09:49.640Z,11.60
2023-03-31T14:12:34.626Z,11.70
2023-03-31T14:15:03.679Z,11.70
2023-03-31T14:17:41.370Z,11.70
2023-03-31T14:20:49.795Z,11.60
2023-03-31T14:23:41.066Z,11.50
2023-03-31T14:26:30.630Z,11.20
2023-03-31T14:29:17.736Z,11.10
2023-03-31T14:32:29.210Z,11.00
2023-03-31T14:35:26.642Z,11.00
2023-03-31T14:37:56.440Z,11.10
2023-03-31T14:40:24.948Z,11.30
2023-03-31T14:42:52.626Z,11.50
2023-03-31T14:45:25.645Z,11.90
2023-03-31T14:48:04.736Z,12.40
2023-03-31T14:50:35.793Z,13.10
2023-03-31T14:53:04.872Z,13.50
2023-03-31T14:55:44.708Z,13.80
2023-03-31T14:58:35.141Z,14.00
2023-03-31T15:01:07.221Z,13.80
2023-03-31T15:03:38.999Z,13.40
2023-03-31T15:06:08.962Z,12.90
2023-03-31T15:08:37.496Z,12.40
2023-03-31T15:11:25.020Z,12.10
2023-03-31T15:14:04.378Z,11.80
2023-03-31T15:16:42.242Z,11.60
2023-03-31T15:19:28.596Z,11.50
2023-03-31T15:22:01.774Z,11.20
2023-03-31T15:24:30.332Z,10.80
2023-03-31T15:27:18.062Z,10.40
2023-03-31T15:29:49.384Z,10.20
2023-03-31T15:32:25.975Z,10.10
2023-03-31T15:34:54.106Z,10.00
2023-03-31T15:37:32.918Z,10.10
2023-03-31T15:40:07.338Z,10.40
2023-03-31T15:42:36.851Z,10.70
2023-03-31T15:45:25.742Z,11.20
2023-03-31T15:47:55.506Z,11.80
2023-03-31T15:50:24.661Z,12.10
2023-03-31T15:52:55.202Z,12.20
2023-03-31T15:55:40.233Z,11.90
2023-03-31T15:58:15.844Z,11.70
2023-03-31T16:00:47.350Z,11.40
2023-03-31T16:03:18.547Z,11.30
2023-03-31T16:05:56.938Z,11.30
2023-03-31T16:08:44.763Z,11.30
2023-03-31T16:11:24.441Z,11.40
2023-03-31T16:13:57.468Z,11.40
2023-03-31T16:16:27.448Z,11.40
2023-03-31T16:19:10.277Z,11.30
2023-03-31T16:21:47.470Z,11.30
2023-03-31T16:24:15.714Z,11.20
2023-03-31T16:26:46.275Z,11.10
2023-03-31T16:29:23.178Z,11.00
2023-03-31T16:32:22.845Z,11.00
2023-03-31T16:34:53.367Z,10.90
2023-03-31T16:37:20.428Z,10.80
2023-03-31T16:39:47.518Z,10.80
2023-03-31T16:42:14.627Z,10.70
2023-03-31T16:44:42.674Z,10.60
2023-03-31T16:47:13.212Z,10.60
2023-03-31T16:49:44.803Z,10.70
2023-03-31T16:52:12.457Z,10.70
2023-03-31T16:54:39.685Z,10.60
2023-03-31T16:57:07.309Z,10.50
2023-03-31T16:59:34.514Z,10.60
2023-03-31T17:02:01.721Z,10.70
2023-03-31T17:04:29.761Z,10.70
2023-03-31T17:06:57.514Z,10.70
2023-03-31T17:09:24.709Z,10.70
2023-03-31T17:11:51.851Z,10.70
2023-03-31T17:14:20.019Z,10.70
2023-03-31T17:16:48.753Z,10.70
2023-03-31T17:19:19.754Z,10.70
2023-03-31T17:21:46.846Z,10.70
2023-03-31T17:24:14.069Z,10.80
2023-03-31T17:26:42.851Z,10.80
2023-03-31T17:29:10.889Z,10.80
2023-03-31T17:31:38.070Z,10.70
2023-03-31T17:34:06.404Z,10.70
2023-03-31T17:36:33.560Z,10.70
2023-03-31T17:39:01.029Z,10.80
2023-03-31T17:41:31.688Z,10.70
2023-03-31T17:43:58.910Z,10.60
2023-03-31T17:46:26.363Z,10.60
2023-03-31T17:48:54.634Z,10.60
2023-03-31T17:51:22.377Z,10.60
2023-03-31T17:53:49.489Z,10.50
2023-03-31T17:56:19.370Z,10.50
2023-03-31T17:58:46.964Z,10.50
2023-03-31T18:01:14.637Z,10.40
2023-03-31T18:03:42.238Z,10.40
2023-03-31T18:06:12.964Z,10.30
2023-03-31T18:08:42.027Z,10.30
2023-03-31T18:11:09.950Z,10.30
2023-03-31T18:13:37.579Z,10.20
2023-03-31T18:16:06.471Z,10.20
2023-03-31T18:18:33.617Z,10.20
2023-03-31T18:21:06.250Z,10.10
2023-03-31T18:23:34.755Z,10.10
2023-03-31T18:26:03.026Z,10.10
2023-03-31T18:28:30.201Z,10.10
2023-03-31T18:30:57.245Z,10.10
2023-03-31T18:33:24.515Z,10.00
2023-03-31T18:35:53.196Z,10.00
2023-03-31T18:38:20.364Z,10.10
2023-03-31T18:40:49.903Z,10.00
2023-03-31T18:43:22.362Z,10.00
2023-03-31T18:45:52.629Z,9.90
2023-03-31T18:48:23.334Z,9.90
2023-03-31T18:50:52.603Z,9.90
2023-03-31T18:53:21.884Z,9.90
2023-03-31T18:55:50.722Z,9.90
2023-03-31T18:58:18.406Z,9.90
2023-03-31T19:00:46.189Z,9.90
2023-03-31T19:03:13.870Z,9.80
2023-03-31T19:05:41.078Z,9.80
2023-03-31T19:08:08.438Z,9.80
2023-03-31T19:10:36.682Z,9.80
2023-03-31T19:13:04.168Z,9.70
2023-03-31T19:15:31.677Z,9.80
2023-03-31T19:17:59.097Z,9.70
2023-03-31T19:20:26.307Z,9.80
2023-03-31T19:22:53.487Z,9.80
2023-03-31T19:25:21.636Z,9.80
2023-03-31T19:27:49.494Z,9.70
2023-03-31T19:30:24.146Z,9.70
2023-03-31T19:32:52.471Z,9.70
2023-03-31T19:35:20.949Z,9.70
2023-03-31T19:37:48.959Z,9.60
2023-03-31T19:40:16.235Z,9.50
2023-03-31T19:42:44.495Z,9.60
2023-03-31T19:45:12.472Z,9.50
2023-03-31T19:47:39.693Z,9.60
2023-03-31T19:50:08.492Z,9.50
2023-03-31T19:52:36.623Z,9.50
2023-03-31T19:55:04.060Z,9.40
2023-03-31T19:57:32.727Z,9.30
2023-03-31T19:59:59.855Z,9.20
2023-03-31T20:02:27.663Z,9.40
2023-03-31T20:04:55.451Z,9.60
2023-03-31T20:07:23.478Z,9.50
2023-03-31T20:09:50.782Z,9.50
2023-03-31T20:12:20.114Z,9.50
2023-03-31T20:14:47.734Z,9.60
2023-03-31T20:17:15.693Z,9.60
2023-03-31T20:19:43.331Z,9.50
2023-03-31T20:22:10.435Z,9.50
2023-03-31T20:24:38.559Z,9.40
2023-03-31T20:27:05.737Z,9.40
2023-03-31T20:29:32.979Z,9.40
2023-03-31T20:32:00.240Z,9.60
2023-03-31T20:34:27.668Z,9.60
2023-03-31T20:36:54.911Z,9.60
2023-03-31T20:39:22.916Z,9.70
2023-03-31T20:41:50.522Z,9.70
2023-03-31T20:44:17.746Z,9.70
2023-03-31T20:46:45.253Z,9.70
2023-03-31T20:49:12.832Z,9.70
2023-03-31T20:51:41.253Z,9.60
2023-03-31T20:54:09.972Z,9.60
2023-03-31T20:56:41.773Z,9.50
2023-03-31T20:59:12.795Z,9.60
2023-03-31T21:01:42.237Z,9.60
2023-03-31T21:04:12.108Z,9.60
2023-03-31T21:06:45.508Z,9.60
2023-03-31T21:09:13.811Z,9.60
2023-03-31T21:11:41.617Z,9.50
2023-03-31T21:14:13.662Z,9.50
2023-03-31T21:16:40.880Z,9.50
2023-03-31T21:19:08.192Z,9.50
2023-03-31T21:21:36.290Z,9.50
2023-03-31T21:24:04.015Z,9.60
2023-03-31T21:26:31.236Z,9.60
2023-03-31T21:28:58.528Z,9.60
2023-03-31T21:31:26.159Z,9.50
2023-03-31T21:33:56.510Z,9.60
2023-03-31T21:36:25.020Z,9.60
2023-03-31T21:38:57.371Z,9.50
2023-03-31T21:41:30.556Z,9.60
2023-03-31T21:44:00.896Z,9.60
2023-03-31T21:46:32.807Z,9.60
2023-03-31T21:49:00.224Z,9.60
2023-03-31T21:51:28.744Z,9.60
2023-03-31T21:53:56.514Z,9.60
2023-03-31T21:56:27.180Z,9.60
2023-03-31T21:58:54.788Z,9.60
2023-03-31T22:01:22.576Z,9.60
2023-03-31T22:03:51.904Z,9.60
2023-03-31T22:06:19.183Z,9.70
2023-03-31T22:08:46.600Z,9.70
2023-03-31T22:11:14.184Z,9.60
2023-03-31T22:13:41.453Z,9.60
2023-03-31T22:16:21.551Z,9.60
2023-03-31T22:18:50.664Z,9.60
2023-03-31T22:21:25.031Z,9.60
2023-03-31T22:23:58.329Z,9.60
2023-03-31T22:26:28.699Z,9.60
2023-03-31T22:28:56.799Z,9.70
2023-03-31T22:31:24.337Z,9.70
2023-03-31T22:33:53.223Z,9.60
2023-03-31T22:36:20.796Z,9.60
2023-03-31T22:38:49.236Z,9.50
2023-03-31T22:41:16.754Z,9.40
2023-03-31T22:43:45.996Z,9.40
2023-03-31T22:46:14.449Z,9.40
2023-03-31T22:48:41.769Z,9.50
2023-03-31T22:51:11.945Z,9.50
2023-03-31T22:53:39.154Z,9.50
2023-03-31T22:56:12.074Z,9.50
2023-03-31T22:58:39.455Z,9.50
2023-03-31T23:01:07.528Z,9.50
2023-03-31T23:03:34.922Z,9.50
2023-03-31T23:06:06.308Z,9.50
2023-03-31T23:08:35.726Z,9.60
2023-03-31T23:11:06.747Z,9.60
2023-03-31T23:13:34.169Z,9.60
2023-03-31T23:16:17.765Z,9.50
2023-03-31T23:18:48.474Z,9.30
2023-03-31T23:21:20.241Z,9.40
2023-03-31T23:23:47.778Z,9.40
2023-03-31T23:26:15.945Z,9.40
2023-03-31T23:28:44.082Z,9.40
2023-03-31T23:31:11.283Z,9.40
2023-03-31T23:33:38.427Z,9.30
2023-03-31T23:36:08.085Z,9.40
2023-03-31T23:38:36.255Z,9.40
2023-03-31T23:41:03.810Z,9.30
2023-03-31T23:43:31.056Z,9.50
2023-03-31T23:45:58.182Z,9.20
2023-03-31T23:48:25.357Z,9.20
2023-03-31T23:50:52.548Z,9.10
2023-03-31T23:53:19.833Z,9.10
2023-03-31T23:55:59.231Z,9.20
2023-03-31T23:58:27.230Z,9.20
